Time;durP1;ratioP1;P1;durP2;ratioP2;P2;SDS_P1;SDS_P2;PMS_P1;PMS_P2;Temp;Humidity;BMP_temperature;BMP_pressure;BME280_temperature;BME280_humidity;BME280_pressure;Samples;Min_cycle;Max_cycle;Signal;HPM_P1;HPM_P2
2023/03/14 00:01:33;;;;;;;1.00;1.00;;;22.20;35.10;;;;;;4945277;28;20051;-60
2023/03/14 00:04:00;;;;;;;1.38;1.27;;;22.20;35.10;;;;;;4972493;28;20053;-60
2023/03/14 00:06:28;;;;;;;2.15;1.45;;;22.20;35.10;;;;;;4975856;28;20125;-60
2023/03/14 00:08:55;;;;;;;2.15;1.40;;;22.20;35.10;;;;;;4975136;28;20057;-61
2023/03/14 00:11:22;;;;;;;1.63;1.42;;;22.20;35.10;;;;;;4968359;28;20139;-60
2023/03/14 00:13:50;;;;;;;1.50;1.40;;;22.20;35.10;;;;;;4969409;28;20050;-60
2023/03/14 00:16:18;;;;;;;2.00;1.10;;;22.20;35.10;;;;;;4946370;28;20048;-60
2023/03/14 00:18:45;;;;;;;1.40;1.30;;;22.20;35.10;;;;;;4959528;28;20052;-60
2023/03/14 00:21:13;;;;;;;1.80;1.33;;;22.20;35.10;;;;;;4968239;28;20074;-60
2023/03/14 00:23:41;;;;;;;1.77;1.45;;;22.20;35.10;;;;;;4975195;28;20061;-60
2023/03/14 00:26:11;;;;;;;1.33;1.05;;;22.20;35.10;;;;;;4952296;28;20134;-60
2023/03/14 00:28:39;;;;;;;1.77;1.10;;;22.20;35.10;;;;;;4961544;28;20047;-60
2023/03/14 00:31:08;;;;;;;1.20;1.20;;;22.20;35.10;;;;;;4975431;28;20069;-60
2023/03/14 00:33:35;;;;;;;1.20;1.10;;;22.10;35.00;;;;;;4953448;28;20511;-60
2023/03/14 00:36:05;;;;;;;1.25;1.15;;;22.20;35.10;;;;;;4959090;28;20105;-61
2023/03/14 00:38:33;;;;;;;1.30;1.08;;;22.20;35.10;;;;;;4971722;28;20043;-60
2023/03/14 00:41:04;;;;;;;1.15;1.05;;;22.10;35.10;;;;;;4961196;28;20142;-61
2023/03/14 00:43:31;;;;;;;1.50;1.20;;;22.10;35.10;;;;;;4961853;28;20139;-60
2023/03/14 00:45:58;;;;;;;1.33;1.13;;;22.10;35.10;;;;;;4943380;28;20058;-60
2023/03/14 00:48:26;;;;;;;1.52;1.27;;;22.10;35.10;;;;;;4957623;29;20407;-60
2023/03/14 00:50:53;;;;;;;1.20;1.00;;;22.20;35.10;;;;;;4969414;28;20047;-60
2023/03/14 00:53:20;;;;;;;1.55;1.45;;;22.20;35.10;;;;;;4968312;28;20054;-60
2023/03/14 00:55:47;;;;;;;1.40;1.30;;;22.10;35.10;;;;;;4969700;28;20043;-60
2023/03/14 00:58:17;;;;;;;1.15;1.05;;;22.10;35.10;;;;;;4955139;28;20047;-61
2023/03/14 01:00:45;;;;;;;1.40;1.30;;;22.10;35.70;;;;;;4964748;28;20094;-60
2023/03/14 01:03:13;;;;;;;1.60;1.23;;;22.10;35.10;;;;;;4956514;28;20051;-60
2023/03/14 01:05:40;;;;;;;1.30;1.20;;;22.10;35.20;;;;;;4971118;28;20058;-60
2023/03/14 01:08:08;;;;;;;1.10;1.00;;;22.10;35.20;;;;;;4967799;28;20141;-61
2023/03/14 01:10:40;;;;;;;3.35;1.25;;;22.10;35.20;;;;;;4975487;28;20090;-60
2023/03/14 01:13:08;;;;;;;1.65;1.20;;;22.10;35.10;;;;;;4955378;28;20039;-61
2023/03/14 01:15:37;;;;;;;1.60;1.00;;;22.10;35.10;;;;;;4973738;28;20510;-60
2023/03/14 01:18:04;;;;;;;1.10;1.02;;;22.20;35.20;;;;;;4973299;28;20043;-60
2023/03/14 01:20:32;;;;;;;1.48;1.38;;;22.10;35.10;;;;;;4967998;28;20134;-60
2023/03/14 01:22:59;;;;;;;1.23;1.13;;;22.10;35.10;;;;;;4962464;28;20047;-60
2023/03/14 01:25:26;;;;;;;1.23;1.13;;;22.20;35.10;;;;;;4964300;28;20051;-60
2023/03/14 01:27:53;;;;;;;0.75;0.75;;;22.10;35.10;;;;;;4967973;28;20061;-60
2023/03/14 01:30:20;;;;;;;1.05;0.82;;;22.10;35.10;;;;;;4954316;28;20049;-60
2023/03/14 01:32:48;;;;;;;1.48;1.38;;;22.10;35.10;;;;;;4955143;28;20109;-60
2023/03/14 01:35:15;;;;;;;1.38;1.00;;;22.20;35.10;;;;;;4965169;28;20400;-60
2023/03/14 01:37:42;;;;;;;1.30;1.20;;;22.10;35.10;;;;;;4941623;28;20057;-60
2023/03/14 01:40:11;;;;;;;1.20;1.10;;;22.10;35.10;;;;;;4955945;28;20047;-61
2023/03/14 01:42:38;;;;;;;1.10;0.98;;;22.10;35.00;;;;;;4961044;28;20055;-60
2023/03/14 01:45:25;;;;;;;1.20;1.10;;;22.10;35.10;;;;;;4974385;28;20081;-60
2023/03/14 01:47:52;;;;;;;1.48;1.38;;;22.10;35.10;;;;;;4969399;28;20051;-60
2023/03/14 01:50:19;;;;;;;0.98;0.98;;;22.10;35.10;;;;;;4966257;28;20130;-60
2023/03/14 01:52:49;;;;;;;1.50;1.40;;;22.10;35.10;;;;;;4960807;28;20086;-60
2023/03/14 01:55:23;;;;;;;1.38;1.27;;;22.10;35.10;;;;;;4972017;28;20047;-60
2023/03/14 01:58:01;;;;;;;1.50;1.00;;;22.10;35.10;;;;;;4961988;28;20424;-60
2023/03/14 02:00:29;;;;;;;1.02;1.02;;;22.10;35.10;;;;;;4969562;28;20287;-60
2023/03/14 02:03:01;;;;;;;0.95;0.95;;;22.10;35.10;;;;;;4972194;28;20101;-60
2023/03/14 02:05:38;;;;;;;1.17;1.02;;;22.10;35.10;;;;;;4973386;28;20053;-60
2023/03/14 02:08:09;;;;;;;1.83;1.42;;;22.10;35.10;;;;;;4968097;28;20071;-60
2023/03/14 02:10:44;;;;;;;0.90;0.90;;;22.10;35.00;;;;;;4973697;28;20077;-60
2023/03/14 02:13:12;;;;;;;0.93;0.90;;;22.10;35.10;;;;;;4973178;28;20624;-60
2023/03/14 02:15:40;;;;;;;1.05;0.95;;;22.10;35.00;;;;;;4972741;28;20057;-60
2023/03/14 02:18:08;;;;;;;1.08;0.98;;;22.10;35.00;;;;;;4961540;28;20404;-60
2023/03/14 02:21:00;;;;;;;1.55;1.05;;;22.10;35.00;;;;;;4960380;28;20098;-60
2023/03/14 02:23:51;;;;;;;0.70;0.70;;;22.10;35.10;;;;;;4968157;28;20047;-60
2023/03/14 02:26:43;;;;;;;1.30;1.00;;;22.00;35.00;;;;;;4970518;28;20085;-60
2023/03/14 02:29:10;;;;;;;0.90;0.90;;;22.10;35.10;;;;;;4960605;28;20477;-60
2023/03/14 02:31:37;;;;;;;1.55;1.00;;;22.00;35.00;;;;;;4971302;28;20053;-60
2023/03/14 02:34:05;;;;;;;0.95;0.95;;;22.10;35.10;;;;;;4962328;28;20416;-60
2023/03/14 02:36:32;;;;;;;0.68;0.68;;;22.00;35.00;;;;;;4967789;28;20057;-61
2023/03/14 02:39:19;;;;;;;1.20;1.10;;;22.10;35.10;;;;;;4973060;28;20054;-61
2023/03/14 02:41:48;;;;;;;0.68;0.68;;;22.00;35.10;;;;;;4961707;28;20507;-60
2023/03/14 02:44:16;;;;;;;1.35;1.20;;;22.10;35.10;;;;;;4964564;28;20042;-61
2023/03/14 02:46:43;;;;;;;1.08;0.82;;;22.00;35.10;;;;;;4964963;28;20126;-60
2023/03/14 02:49:15;;;;;;;1.05;1.05;;;22.00;35.10;;;;;;4953973;28;20055;-61
2023/03/14 02:51:44;;;;;;;0.65;0.60;;;22.00;35.10;;;;;;4937580;28;20047;-60
2023/03/14 02:54:14;;;;;;;0.80;0.80;;;22.10;35.10;;;;;;4966344;28;20049;-61
2023/03/14 02:56:41;;;;;;;1.35;1.25;;;22.00;35.00;;;;;;4970281;28;20050;-61
2023/03/14 02:59:08;;;;;;;0.93;0.70;;;22.00;35.00;;;;;;4969912;28;20072;-61
2023/03/14 03:01:35;;;;;;;1.55;1.13;;;22.00;35.00;;;;;;4952351;28;20122;-61
2023/03/14 03:04:02;;;;;;;0.88;0.88;;;22.00;35.00;;;;;;4953446;28;20404;-60
2023/03/14 03:06:29;;;;;;;0.80;0.80;;;22.00;35.10;;;;;;4964828;28;20047;-61
2023/03/14 03:08:57;;;;;;;0.80;0.77;;;22.00;35.10;;;;;;4939719;28;20038;-61
2023/03/14 03:11:24;;;;;;;0.63;0.63;;;22.00;35.10;;;;;;4963660;28;20153;-61
2023/03/14 03:13:51;;;;;;;1.02;0.80;;;22.00;35.10;;;;;;4957231;28;20055;-61
2023/03/14 03:16:18;;;;;;;1.10;1.00;;;22.00;35.10;;;;;;4962117;28;20078;-61
2023/03/14 03:18:45;;;;;;;1.10;1.00;;;22.00;35.20;;;;;;4962626;28;20077;-61
2023/03/14 03:21:12;;;;;;;0.95;0.90;;;22.00;35.10;;;;;;4944558;28;20039;-61
2023/03/14 03:23:39;;;;;;;0.98;0.93;;;22.00;35.10;;;;;;4970174;28;20053;-61
2023/03/14 03:26:09;;;;;;;1.00;1.00;;;22.00;35.10;;;;;;4957263;28;20544;-60
2023/03/14 03:28:36;;;;;;;0.90;0.70;;;22.00;35.60;;;;;;4964185;28;20059;-61
2023/03/14 03:31:11;;;;;;;0.65;0.60;;;22.00;35.10;;;;;;4971603;28;20065;-60
2023/03/14 03:33:38;;;;;;;0.77;0.77;;;22.00;35.10;;;;;;4967089;28;20043;-61
2023/03/14 03:36:06;;;;;;;0.80;0.77;;;22.00;35.00;;;;;;4951355;28;20449;-60
2023/03/14 03:38:33;;;;;;;1.02;0.90;;;22.00;35.10;;;;;;4962485;28;20093;-60
2023/03/14 03:41:04;;;;;;;1.63;0.82;;;22.00;35.00;;;;;;4968063;28;20274;-61
2023/03/14 03:43:31;;;;;;;1.80;1.20;;;22.00;35.00;;;;;;4957320;28;20459;-61
2023/03/14 03:45:58;;;;;;;0.68;0.68;;;22.00;35.00;;;;;;4959454;28;20174;-61
2023/03/14 03:48:25;;;;;;;1.13;0.65;;;22.00;35.00;;;;;;4965689;28;20319;-61
2023/03/14 03:50:52;;;;;;;0.77;0.77;;;22.00;35.50;;;;;;4963982;28;20521;-61
2023/03/14 03:53:19;;;;;;;0.95;0.95;;;22.00;35.00;;;;;;4961597;28;20051;-61
2023/03/14 03:55:59;;;;;;;0.88;0.88;;;22.00;35.00;;;;;;4954252;29;20051;-60
2023/03/14 03:58:26;;;;;;;0.80;0.80;;;22.00;35.00;;;;;;4957699;28;20047;-61
2023/03/14 04:00:54;;;;;;;1.50;1.40;;;22.00;35.00;;;;;;4953148;28;20083;-61
2023/03/14 04:03:21;;;;;;;1.45;0.75;;;22.10;35.10;;;;;;4961811;28;20058;-61
2023/03/14 04:06:03;;;;;;;0.82;0.80;;;22.00;35.00;;;;;;4955551;28;20101;-61
2023/03/14 04:08:31;;;;;;;0.68;0.68;;;22.00;35.00;;;;;;4965726;28;20050;-61
2023/03/14 04:11:00;;;;;;;1.08;0.80;;;22.00;35.00;;;;;;4959074;28;20055;-61
2023/03/14 04:13:28;;;;;;;0.95;0.85;;;22.00;35.00;;;;;;4961077;28;20134;-60
2023/03/14 04:15:56;;;;;;;0.60;0.60;;;22.00;35.00;;;;;;4951525;28;20438;-61
2023/03/14 04:18:24;;;;;;;1.30;0.88;;;22.00;35.00;;;;;;4968925;28;20055;-60
2023/03/14 04:20:54;;;;;;;1.40;1.30;;;22.00;35.00;;;;;;4959599;28;20074;-61
2023/03/14 04:23:24;;;;;;;0.70;0.70;;;22.00;35.00;;;;;;4971568;28;20409;-60
2023/03/14 04:25:52;;;;;;;0.88;0.88;;;22.00;35.00;;;;;;4957864;28;20087;-61
2023/03/14 04:28:19;;;;;;;0.75;0.65;;;22.00;35.00;;;;;;4953027;28;20563;-61
2023/03/14 04:30:46;;;;;;;1.25;0.82;;;22.00;35.00;;;;;;4964970;28;20082;-61
2023/03/14 04:33:16;;;;;;;1.30;0.93;;;22.00;35.00;;;;;;4973186;28;20491;-60
2023/03/14 04:35:45;;;;;;;1.00;0.68;;;22.00;35.00;;;;;;4968456;28;20531;-61
2023/03/14 04:38:13;;;;;;;0.88;0.88;;;22.00;35.00;;;;;;4964870;28;20510;-61
2023/03/14 04:40:40;;;;;;;0.85;0.75;;;22.00;35.00;;;;;;4946893;28;20568;-62
2023/03/14 04:43:10;;;;;;;1.13;1.00;;;22.00;35.00;;;;;;4957610;28;20059;-61
2023/03/14 04:45:41;;;;;;;0.93;0.88;;;22.00;35.00;;;;;;4959007;28;20256;-61
2023/03/14 04:48:08;;;;;;;0.60;0.60;;;22.00;35.00;;;;;;4973434;28;20049;-61
2023/03/14 04:50:35;;;;;;;1.02;0.88;;;22.00;35.00;;;;;;4975409;28;20130;-60
2023/03/14 04:53:02;;;;;;;1.23;1.13;;;21.90;34.90;;;;;;4982776;28;20095;-61
2023/03/14 04:55:32;;;;;;;0.70;0.63;;;22.00;35.00;;;;;;4985306;28;20133;-61
2023/03/14 04:57:59;;;;;;;0.63;0.63;;;22.00;35.00;;;;;;4982144;28;20050;-61
2023/03/14 05:00:26;;;;;;;0.47;0.47;;;22.00;35.00;;;;;;4982114;28;20078;-61
2023/03/14 05:02:53;;;;;;;0.95;0.80;;;22.00;35.00;;;;;;4982603;28;20051;-61
2023/03/14 05:05:21;;;;;;;0.73;0.73;;;22.00;35.00;;;;;;4979998;28;20054;-61
2023/03/14 05:07:48;;;;;;;0.60;0.60;;;21.90;35.00;;;;;;4968888;28;20051;-61
2023/03/14 05:10:15;;;;;;;1.27;0.85;;;21.90;35.00;;;;;;4965486;28;20057;-61
2023/03/14 05:12:42;;;;;;;1.17;0.95;;;21.90;35.00;;;;;;4965216;28;20051;-60
2023/03/14 05:15:09;;;;;;;0.68;0.68;;;21.90;35.00;;;;;;4964576;28;20139;-61
2023/03/14 05:17:37;;;;;;;0.82;0.80;;;22.00;35.00;;;;;;4970756;28;20050;-61
2023/03/14 05:20:13;;;;;;;1.63;0.75;;;22.00;35.00;;;;;;4965007;28;20161;-61
2023/03/14 05:22:41;;;;;;;0.60;0.60;;;22.00;35.00;;;;;;4947247;28;20047;-61
2023/03/14 05:25:08;;;;;;;0.77;0.77;;;22.00;35.00;;;;;;4953996;28;20480;-61
2023/03/14 05:27:36;;;;;;;0.45;0.45;;;22.00;35.00;;;;;;4971206;28;20485;-60
2023/03/14 05:30:05;;;;;;;0.50;0.50;;;21.90;34.90;;;;;;4980179;28;20400;-60
2023/03/14 05:32:32;;;;;;;0.63;0.63;;;21.90;34.90;;;;;;4980945;28;20047;-61
2023/03/14 05:35:00;;;;;;;0.65;0.65;;;21.90;34.90;;;;;;4976010;28;20046;-61
2023/03/14 05:37:27;;;;;;;0.90;0.80;;;22.00;34.80;;;;;;4980217;28;20389;-60
2023/03/14 05:39:54;;;;;;;0.68;0.50;;;22.00;34.50;;;;;;4963715;28;20128;-61
2023/03/14 05:42:21;;;;;;;0.70;0.70;;;22.00;34.40;;;;;;4959130;28;20053;-61
2023/03/14 05:44:48;;;;;;;0.70;0.70;;;21.90;34.40;;;;;;4963035;28;20065;-60
2023/03/14 05:47:15;;;;;;;1.00;0.90;;;21.90;34.30;;;;;;4960498;28;20053;-60
2023/03/14 05:49:42;;;;;;;0.77;0.70;;;22.00;34.40;;;;;;4976348;28;20122;-60
2023/03/14 05:52:10;;;;;;;1.50;0.75;;;22.00;34.40;;;;;;4978613;28;20429;-60
2023/03/14 05:54:37;;;;;;;0.98;0.90;;;22.00;34.40;;;;;;4959294;28;20122;-61
2023/03/14 05:57:04;;;;;;;1.00;0.80;;;22.00;34.30;;;;;;4971648;28;20376;-61
2023/03/14 05:59:31;;;;;;;0.63;0.63;;;22.00;34.20;;;;;;4971529;28;20133;-60
2023/03/14 06:01:58;;;;;;;2.08;0.80;;;22.10;34.20;;;;;;4969723;28;20418;-61
2023/03/14 06:04:25;;;;;;;1.02;0.60;;;22.10;34.10;;;;;;4970669;28;20120;-60
2023/03/14 06:06:52;;;;;;;0.98;0.80;;;22.10;34.00;;;;;;4974455;28;20158;-61
2023/03/14 06:09:22;;;;;;;0.93;0.50;;;22.20;34.00;;;;;;4965348;28;20399;-60
2023/03/14 06:11:49;;;;;;;0.50;0.50;;;22.20;33.90;;;;;;4965304;28;20082;-60
2023/03/14 06:14:17;;;;;;;0.73;0.73;;;22.30;33.80;;;;;;4969618;28;20051;-60
2023/03/14 06:16:44;;;;;;;1.40;1.30;;;22.30;33.70;;;;;;4974144;28;20050;-60
2023/03/14 06:19:12;;;;;;;0.70;0.68;;;22.40;33.60;;;;;;4971803;28;20061;-61
2023/03/14 06:21:39;;;;;;;1.25;0.93;;;22.40;33.50;;;;;;4971846;28;20050;-60
2023/03/14 06:24:06;;;;;;;1.15;0.77;;;22.40;33.40;;;;;;4966109;28;20074;-60
2023/03/14 06:26:34;;;;;;;1.42;1.00;;;22.50;33.30;;;;;;4969728;28;20090;-61
2023/03/14 06:29:03;;;;;;;0.80;0.80;;;22.50;33.20;;;;;;4966261;28;20061;-58
2023/03/14 06:31:33;;;;;;;1.90;0.80;;;22.60;33.20;;;;;;4951716;28;20047;-57
2023/03/14 06:34:00;;;;;;;1.13;0.95;;;22.60;33.10;;;;;;4967919;28;20055;-60
2023/03/14 06:36:27;;;;;;;1.33;0.80;;;22.60;33.00;;;;;;4949801;28;20115;-59
2023/03/14 06:38:54;;;;;;;0.93;0.88;;;22.70;32.90;;;;;;4960597;28;20145;-60
2023/03/14 06:41:25;;;;;;;1.30;0.68;;;22.70;32.60;;;;;;4959454;28;20159;-60
2023/03/14 06:43:52;;;;;;;1.50;0.98;;;22.70;32.70;;;;;;4959741;28;20496;-59
2023/03/14 06:46:23;;;;;;;1.02;0.93;;;22.80;32.80;;;;;;4966798;28;20475;-60
2023/03/14 06:48:50;;;;;;;1.30;0.80;;;22.80;32.80;;;;;;4962004;28;20384;-60
2023/03/14 06:51:17;;;;;;;1.55;1.02;;;22.80;32.90;;;;;;4967680;28;20337;-60
2023/03/14 06:53:44;;;;;;;3.03;0.98;;;22.80;32.90;;;;;;4964566;28;20082;-61
2023/03/14 06:56:12;;;;;;;1.17;1.08;;;22.90;32.90;;;;;;4966398;28;20483;-60
2023/03/14 06:58:39;;;;;;;3.28;1.00;;;22.90;32.90;;;;;;4936408;28;20062;-60
2023/03/14 07:01:17;;;;;;;2.80;1.40;;;22.90;33.00;;;;;;4958920;28;20082;-60
2023/03/14 07:03:44;;;;;;;4.78;1.60;;;23.00;33.20;;;;;;4960491;28;20129;-59
2023/03/14 07:06:11;;;;;;;1.90;1.13;;;23.00;33.40;;;;;;4961961;28;20097;-60
2023/03/14 07:08:39;;;;;;;2.08;1.35;;;23.10;33.60;;;;;;4960827;28;20061;-64
2023/03/14 07:11:06;;;;;;;1.55;1.00;;;23.10;33.60;;;;;;4966536;28;20082;-65
2023/03/14 07:13:34;;;;;;;2.70;1.60;;;23.20;33.60;;;;;;4964293;28;20047;-63
2023/03/14 07:16:01;;;;;;;2.28;1.70;;;23.30;33.70;;;;;;4944291;28;20050;-66
2023/03/14 07:18:29;;;;;;;2.53;1.25;;;23.30;33.70;;;;;;4964634;28;20102;-64
2023/03/14 07:20:56;;;;;;;3.42;1.42;;;23.30;33.60;;;;;;4967771;28;20529;-65
2023/03/14 07:23:23;;;;;;;2.22;1.40;;;23.40;33.70;;;;;;4963969;28;20479;-65
2023/03/14 07:25:52;;;;;;;2.63;1.70;;;23.50;33.60;;;;;;4960381;28;20050;-66
2023/03/14 07:28:20;;;;;;;2.70;1.50;;;23.60;33.40;;;;;;4944820;28;20047;-65
2023/03/14 07:30:47;;;;;;;4.95;1.50;;;23.60;33.20;;;;;;4944903;28;20055;-64
2023/03/14 07:33:15;;;;;;;3.42;1.58;;;23.70;33.00;;;;;;4946807;28;20170;-65
2023/03/14 07:35:42;;;;;;;1.45;1.30;;;23.70;32.90;;;;;;4970472;28;20089;-64
2023/03/14 07:38:10;;;;;;;3.97;1.65;;;23.80;32.80;;;;;;4933386;28;20102;-65
2023/03/14 07:40:37;;;;;;;3.15;1.40;;;23.80;32.70;;;;;;4951907;28;20137;-65
2023/03/14 07:43:04;;;;;;;2.78;1.70;;;23.90;32.60;;;;;;4972403;28;20050;-65
2023/03/14 07:45:31;;;;;;;3.80;1.63;;;23.90;32.40;;;;;;4966111;28;20047;-65
2023/03/14 07:47:59;;;;;;;3.28;1.70;;;23.90;32.30;;;;;;4972093;28;20112;-66
2023/03/14 07:50:27;;;;;;;5.80;2.45;;;23.90;32.20;;;;;;4945164;28;20042;-66
2023/03/14 07:52:54;;;;;;;5.30;2.25;;;24.00;32.20;;;;;;4970522;28;20054;-67
2023/03/14 07:55:22;;;;;;;3.40;2.10;;;24.00;32.20;;;;;;4970210;28;20048;-63
2023/03/14 07:57:49;;;;;;;3.38;1.83;;;24.10;32.10;;;;;;4946007;28;20141;-65
2023/03/14 08:00:16;;;;;;;5.75;1.67;;;24.10;32.20;;;;;;4971227;28;20471;-64
2023/03/14 08:02:44;;;;;;;3.53;1.77;;;24.10;32.20;;;;;;4969147;28;20056;-65
2023/03/14 08:05:12;;;;;;;3.80;1.70;;;24.10;32.10;;;;;;4942105;28;20152;-64
2023/03/14 08:07:39;;;;;;;2.78;1.40;;;24.10;32.20;;;;;;4973806;28;20146;-65
2023/03/14 08:10:07;;;;;;;3.83;2.05;;;24.20;32.20;;;;;;4952425;28;20133;-64
2023/03/14 08:12:34;;;;;;;3.33;1.75;;;24.20;32.00;;;;;;4970792;28;20051;-63
2023/03/14 08:15:03;;;;;;;4.90;1.83;;;24.30;32.00;;;;;;4959126;28;20730;-65
2023/03/14 08:17:30;;;;;;;8.60;1.70;;;24.20;31.80;;;;;;4966255;28;20060;-63
2023/03/14 08:19:57;;;;;;;3.42;1.45;;;24.30;31.80;;;;;;4946689;28;20061;-65
2023/03/14 08:22:24;;;;;;;6.13;1.48;;;24.30;31.80;;;;;;4972330;28;20053;-65
2023/03/14 08:24:52;;;;;;;2.88;1.33;;;24.30;31.80;;;;;;4972112;28;20061;-65
2023/03/14 08:27:19;;;;;;;5.68;1.63;;;24.40;31.80;;;;;;4976341;28;20090;-64
2023/03/14 08:29:46;;;;;;;3.22;1.60;;;24.40;31.80;;;;;;4969282;28;20046;-64
2023/03/14 08:32:13;;;;;;;10.43;1.85;;;24.40;31.60;;;;;;4973651;28;20046;-63
2023/03/14 08:34:41;;;;;;;6.25;1.55;;;24.50;31.60;;;;;;4976931;28;20046;-64
2023/03/14 08:37:08;;;;;;;4.50;1.88;;;24.50;31.70;;;;;;4976661;28;20050;-63
2023/03/14 08:39:53;;;;;;;3.15;1.50;;;24.50;31.70;;;;;;4973553;28;20069;-65
2023/03/14 08:42:21;;;;;;;2.50;1.23;;;24.50;31.70;;;;;;4978578;28;20141;-64
2023/03/14 08:44:48;;;;;;;3.53;1.63;;;24.50;31.70;;;;;;4976072;28;20138;-64
2023/03/14 08:47:15;;;;;;;4.28;1.63;;;24.50;31.60;;;;;;4981199;28;20105;-63
2023/03/14 08:49:43;;;;;;;2.38;1.50;;;24.60;31.70;;;;;;4971587;28;20503;-64
2023/03/14 08:52:10;;;;;;;1.65;1.25;;;24.60;31.60;;;;;;4972415;28;20053;-64
2023/03/14 08:54:38;;;;;;;2.00;1.58;;;24.60;31.50;;;;;;4955978;28;20054;-62
2023/03/14 08:57:05;;;;;;;6.57;1.50;;;24.60;31.60;;;;;;4974011;28;20046;-63
2023/03/14 08:59:32;;;;;;;2.55;1.85;;;24.70;31.60;;;;;;4979433;28;20123;-63
2023/03/14 09:02:03;;;;;;;5.65;1.63;;;24.70;31.60;;;;;;4970355;28;20579;-63
2023/03/14 09:04:30;;;;;;;1.88;1.30;;;24.70;31.50;;;;;;4975075;28;20077;-63
2023/03/14 09:06:59;;;;;;;2.08;0.82;;;24.70;31.50;;;;;;4973405;28;20053;-63
2023/03/14 09:09:27;;;;;;;2.60;1.80;;;24.80;31.50;;;;;;4971956;28;20101;-64
2023/03/14 09:11:54;;;;;;;5.40;1.90;;;24.80;31.40;;;;;;4968436;28;20129;-65
2023/03/14 09:14:22;;;;;;;1.98;1.38;;;24.80;31.30;;;;;;4970555;28;20058;-64
2023/03/14 09:16:50;;;;;;;2.55;1.35;;;24.80;31.20;;;;;;4971693;28;20133;-67
2023/03/14 09:19:18;;;;;;;2.60;1.63;;;24.90;31.20;;;;;;4966993;28;20400;-64
2023/03/14 09:21:45;;;;;;;2.03;1.40;;;24.90;31.20;;;;;;4974148;28;20109;-66
2023/03/14 09:24:13;;;;;;;1.98;1.25;;;24.90;31.60;;;;;;4975509;28;20546;-65
2023/03/14 09:26:40;;;;;;;1.40;1.30;;;24.90;31.70;;;;;;4972437;28;20050;-67
2023/03/14 09:29:07;;;;;;;2.88;1.63;;;24.90;31.60;;;;;;4973138;28;20051;-65
2023/03/14 09:31:35;;;;;;;1.52;1.27;;;25.00;32.30;;;;;;4966351;28;20757;-64
2023/03/14 09:34:02;;;;;;;2.13;1.52;;;25.00;31.90;;;;;;4968030;28;20042;-64
2023/03/14 09:36:29;;;;;;;2.45;1.25;;;25.00;31.80;;;;;;4962957;28;20141;-65
2023/03/14 09:38:57;;;;;;;1.85;1.20;;;25.00;31.70;;;;;;4965548;28;20061;-65
2023/03/14 09:41:37;;;;;;;3.20;1.10;;;25.10;31.70;;;;;;4963991;28;20054;-66
2023/03/14 09:44:16;;;;;;;3.58;1.25;;;25.10;31.70;;;;;;4970086;28;20053;-66
2023/03/14 09:46:48;;;;;;;2.42;1.25;;;25.10;31.50;;;;;;4969902;28;20075;-65
2023/03/14 09:49:28;;;;;;;2.97;1.00;;;25.10;31.40;;;;;;4971893;28;20137;-65
2023/03/14 09:51:59;;;;;;;3.13;1.02;;;25.20;31.40;;;;;;4957306;28;20039;-65
2023/03/14 09:54:41;;;;;;;2.67;1.40;;;25.20;31.30;;;;;;4947305;28;21057;-65
2023/03/14 09:57:21;;;;;;;2.10;1.33;;;25.30;31.50;;;;;;4965540;28;20142;-67
2023/03/14 09:59:50;;;;;;;4.85;1.15;;;25.30;31.50;;;;;;4958027;28;20105;-66
2023/03/14 10:02:25;;;;;;;1.67;1.10;;;25.40;31.40;;;;;;4972154;28;20065;-66
2023/03/14 10:04:54;;;;;;;2.70;1.10;;;25.40;31.20;;;;;;4968861;28;20074;-66
2023/03/14 10:07:31;;;;;;;1.67;1.52;;;25.40;31.30;;;;;;4967335;28;20073;-67
2023/03/14 10:09:59;;;;;;;3.40;1.35;;;25.40;31.40;;;;;;4965483;28;20523;-64
2023/03/14 10:12:35;;;;;;;2.33;1.38;;;25.40;31.30;;;;;;4953246;28;20380;-66
2023/03/14 10:15:09;;;;;;;2.05;1.00;;;25.50;31.80;;;;;;4954029;28;20128;-66
2023/03/14 10:17:51;;;;;;;3.67;1.13;;;25.50;31.10;;;;;;4970447;28;20415;-66
2023/03/14 10:20:34;;;;;;;2.97;0.95;;;25.50;31.10;;;;;;4964631;28;20055;-65
2023/03/14 10:23:27;;;;;;;0.88;0.80;;;25.60;30.90;;;;;;4951001;28;20039;-67
2023/03/14 10:26:08;;;;;;;2.08;1.52;;;25.60;30.60;;;;;;4967785;28;20050;-67
2023/03/14 10:28:51;;;;;;;1.55;1.10;;;25.60;30.60;;;;;;4969890;28;20069;-65
2023/03/14 10:31:18;;;;;;;8.30;0.93;;;25.60;30.70;;;;;;4970068;28;20075;-65
2023/03/14 10:34:02;;;;;;;1.00;0.82;;;25.70;30.60;;;;;;4970651;28;20145;-66
2023/03/14 10:36:34;;;;;;;2.38;0.95;;;25.70;30.20;;;;;;4975174;28;20058;-66
2023/03/14 10:39:38;;;;;;;1.27;0.93;;;25.70;30.30;;;;;;4975077;28;20133;-67
2023/03/14 10:42:18;;;;;;;2.17;0.90;;;25.70;30.50;;;;;;4970437;28;20450;-66
2023/03/14 10:44:51;;;;;;;2.20;0.95;;;25.70;30.10;;;;;;4970723;28;20558;-67
2023/03/14 10:47:21;;;;;;;1.55;0.82;;;25.80;30.30;;;;;;4975090;28;20145;-65
2023/03/14 10:49:49;;;;;;;0.90;0.90;;;25.80;30.10;;;;;;4971351;28;20086;-65
2023/03/14 10:52:31;;;;;;;1.63;0.90;;;25.80;30.20;;;;;;4969914;28;20081;-66
2023/03/14 10:55:18;;;;;;;1.00;0.90;;;25.80;30.10;;;;;;4972191;28;20534;-65
2023/03/14 10:57:45;;;;;;;1.40;1.00;;;25.80;30.00;;;;;;4969291;28;20137;-65
2023/03/14 11:00:20;;;;;;;1.00;0.60;;;25.80;30.20;;;;;;4951324;28;20221;-64
2023/03/14 11:03:06;;;;;;;1.48;1.05;;;25.80;30.00;;;;;;4955815;28;20052;-65
2023/03/14 11:05:56;;;;;;;0.80;0.77;;;25.80;30.10;;;;;;4970730;28;20059;-65
2023/03/14 11:08:33;;;;;;;1.75;1.00;;;25.80;30.00;;;;;;4974951;28;20058;-65
2023/03/14 11:11:18;;;;;;;0.88;0.73;;;25.80;30.00;;;;;;4978077;28;20459;-66
2023/03/14 11:14:00;;;;;;;2.40;1.00;;;25.80;30.00;;;;;;4977009;28;20054;-66
2023/03/14 11:16:58;;;;;;;0.73;0.60;;;25.80;30.10;;;;;;4975580;28;20093;-66
2023/03/14 11:19:52;;;;;;;1.33;0.80;;;25.70;29.90;;;;;;4975736;28;20483;-65
2023/03/14 11:22:49;;;;;;;0.60;0.57;;;25.70;30.00;;;;;;4958501;28;20488;-64
2023/03/14 11:25:44;;;;;;;1.33;0.98;;;25.70;30.00;;;;;;4971528;28;20053;-63
2023/03/14 11:28:35;;;;;;;0.82;0.55;;;25.60;29.80;;;;;;4967702;28;20471;-64
2023/03/14 11:31:24;;;;;;;1.15;0.82;;;25.60;30.00;;;;;;4972930;28;20927;-64
2023/03/14 11:34:17;;;;;;;1.53;0.93;;;25.60;30.10;;;;;;4971292;28;20069;-65
2023/03/14 11:36:54;;;;;;;1.92;0.88;;;25.50;30.00;;;;;;4975242;28;20324;-66
2023/03/14 11:39:23;;;;;;;0.75;0.57;;;25.50;30.40;;;;;;4954406;28;20534;-66
2023/03/14 11:41:57;;;;;;;1.35;1.25;;;25.50;30.40;;;;;;4968064;28;20040;-63
2023/03/14 11:44:34;;;;;;;0.95;0.95;;;25.50;30.40;;;;;;4969374;28;20043;-63
2023/03/14 11:47:27;;;;;;;2.13;0.95;;;25.50;30.30;;;;;;4973565;28;20050;-62
2023/03/14 11:50:07;;;;;;;0.95;0.80;;;25.60;31.10;;;;;;4974212;28;20446;-63
2023/03/14 11:52:41;;;;;;;1.05;0.70;;;25.60;30.30;;;;;;4959981;28;20081;-63
2023/03/14 11:55:22;;;;;;;2.13;0.95;;;25.60;30.20;;;;;;4963864;28;20154;-63
2023/03/14 11:57:53;;;;;;;1.95;1.00;;;25.70;30.10;;;;;;4975393;28;20177;-63
2023/03/14 12:00:22;;;;;;;0.55;0.55;;;25.70;30.00;;;;;;4979012;28;20077;-62
2023/03/14 12:03:30;;;;;;;1.50;0.77;;;25.70;30.00;;;;;;4973466;28;20445;-62
2023/03/14 12:06:24;;;;;;;0.70;0.70;;;25.70;30.00;;;;;;4978818;28;20083;-64
2023/03/14 12:08:58;;;;;;;1.00;0.73;;;25.70;30.00;;;;;;4979734;28;20069;-64
2023/03/14 12:11:40;;;;;;;1.45;0.60;;;25.70;30.00;;;;;;4950061;28;20400;-63
2023/03/14 12:14:26;;;;;;;0.68;0.68;;;25.70;29.90;;;;;;4967683;28;20047;-65
2023/03/14 12:17:17;;;;;;;0.95;0.75;;;25.80;29.80;;;;;;4962235;28;20137;-64
2023/03/14 12:19:46;;;;;;;1.50;1.25;;;25.80;29.80;;;;;;4976093;28;20694;-64
2023/03/14 12:22:29;;;;;;;0.90;0.68;;;25.80;29.80;;;;;;4978825;28;20050;-63
2023/03/14 12:25:02;;;;;;;0.65;0.65;;;25.90;29.70;;;;;;4977739;28;20146;-64
2023/03/14 12:27:47;;;;;;;0.95;0.63;;;25.90;29.70;;;;;;4959867;28;20487;-64
2023/03/14 12:30:29;;;;;;;2.38;0.65;;;25.90;29.60;;;;;;4976175;28;20050;-61
2023/03/14 12:33:22;;;;;;;2.10;0.75;;;26.00;29.60;;;;;;4974523;28;20093;-62
2023/03/14 12:35:56;;;;;;;1.27;0.85;;;26.00;29.50;;;;;;4956927;28;20055;-56
2023/03/14 12:38:52;;;;;;;1.17;0.82;;;26.00;29.50;;;;;;4974735;28;20054;-57
2023/03/14 12:41:34;;;;;;;1.10;0.70;;;26.10;29.80;;;;;;4955968;28;20081;-57
2023/03/14 12:44:41;;;;;;;0.82;0.70;;;26.10;29.70;;;;;;4970731;28;20562;-57
2023/03/14 12:47:41;;;;;;;1.50;0.73;;;26.10;29.60;;;;;;4957296;28;20074;-56
2023/03/14 12:50:21;;;;;;;0.80;0.60;;;26.10;29.60;;;;;;4970131;28;20054;-56
2023/03/14 12:53:19;;;;;;;4.88;0.82;;;26.10;29.70;;;;;;4978800;28;20051;-58
2023/03/14 12:56:15;;;;;;;0.80;0.80;;;26.10;29.60;;;;;;4942062;28;20061;-58
2023/03/14 12:59:19;;;;;;;2.28;0.50;;;26.20;29.60;;;;;;4976394;28;20073;-56
2023/03/14 13:01:59;;;;;;;0.70;0.70;;;26.20;29.50;;;;;;4962381;28;20057;-58
2023/03/14 13:04:35;;;;;;;1.20;0.70;;;26.20;29.40;;;;;;4960587;28;20133;-58
2023/03/14 13:07:11;;;;;;;;;;;26.20;29.20;;;;;;4977790;28;20482;-56
2023/03/14 13:09:54;;;;;;;0.98;0.75;;;26.20;29.10;;;;;;4962813;28;19922;-58
2023/03/14 13:12:36;;;;;;;1.08;0.70;;;26.20;29.00;;;;;;4971924;28;20094;-55